Time;durP1;ratioP1;P1;durP2;ratioP2;P2;SDS_P1;SDS_P2;PMS_P1;PMS_P2;Temp;Humidity;BMP_temperature;BMP_pressure;BME280_temperature;BME280_humidity;BME280_pressure;Samples;Min_cycle;Max_cycle;Signal;HPM_P1;HPM_P2
2021/04/12 15:04:39;;;;;;;21.76;12.67;;;;;;;10.94;54.25;100293.70;358435;148;879826;-62
2021/04/12 15:05:52;;;;;;;20.56;13.00;;;;;;;10.80;54.29;100309.30;353607;148;856771;-62
2021/04/12 15:07:06;;;;;;;19.12;12.44;;;;;;;10.75;54.53;100303.28;353943;148;857148;-62
2021/04/12 15:08:16;;;;;;;21.97;13.41;;;;;;;10.74;54.74;100301.55;351841;148;857855;-62
2021/04/12 15:09:29;;;;;;;26.96;14.13;;;;;;;10.72;54.75;100301.55;349503;148;856214;-62
2021/04/12 15:10:34;;;;;;;21.39;12.92;;;;;;;10.72;54.90;100306.72;346801;151;856483;-62
2021/04/12 15:11:42;;;;;;;19.71;13.05;;;;;;;10.71;54.39;100301.56;345810;153;856317;-62
2021/04/12 15:12:47;;;;;;;24.54;13.96;;;;;;;10.65;54.44;100299.84;349061;151;856279;-62
2021/04/12 15:14:03;;;;;;;25.47;14.78;;;;;;;10.66;54.54;100309.33;346938;151;856264;-62
2021/04/12 15:15:09;;;;;;;25.13;14.27;;;;;;;10.67;54.75;100305.88;346439;153;863744;-62
2021/04/12 15:16:20;;;;;;;23.53;13.18;;;;;;;10.64;53.99;100308.47;342666;153;856549;-62
2021/04/12 15:17:37;;;;;;;20.02;12.81;;;;;;;10.63;54.09;100305.04;343076;154;856254;-62
2021/04/12 15:18:40;;;;;;;20.61;12.39;;;;;;;10.62;54.27;100307.61;343073;154;856509;-62
2021/04/12 15:19:44;;;;;;;20.13;12.96;;;;;;;10.61;54.23;100308.48;341960;154;856242;-61
2021/04/12 15:20:52;;;;;;;21.58;13.31;;;;;;;10.61;54.22;100309.36;338375;156;856436;-62
2021/04/12 15:22:00;;;;;;;22.11;13.20;;;;;;;10.60;54.06;100306.75;337652;156;856433;-62
2021/04/12 15:23:12;;;;;;;18.86;12.29;;;;;;;10.56;54.11;100308.47;342479;154;856197;-61
2021/04/12 15:24:16;;;;;;;18.61;13.20;;;;;;;10.56;54.27;100307.63;342485;156;856272;-62
2021/04/12 15:25:27;;;;;;;22.14;13.34;;;;;;;10.57;54.40;100309.35;337281;156;856717;-62
2021/04/12 15:26:31;;;;;;;;;;;;;;;10.57;54.40;100309.35;342479;155;855629;-62
2021/04/12 15:27:33;;;;;;;22.70;12.94;;;;;;;10.58;54.53;100300.72;341894;153;856320;-62
2021/04/12 15:28:36;;;;;;;23.77;13.42;;;;;;;10.62;54.59;100312.80;344106;153;856815;-62
2021/04/12 15:29:40;;;;;;;26.07;12.96;;;;;;;10.63;54.60;100312.80;343628;155;856301;-62
2021/04/12 15:31:06;;;;;;;20.79;12.86;;;;;;;10.63;54.53;100312.80;343389;154;856778;-62
2021/04/12 15:32:23;;;;;;;20.42;12.39;;;;;;;10.67;54.69;100308.47;344028;153;857033;-62
2021/04/12 15:33:27;;;;;;;21.03;12.93;;;;;;;10.69;54.34;100308.48;344803;153;856656;-62
2021/04/12 15:34:37;;;;;;;24.53;13.03;;;;;;;10.69;54.19;100308.48;344053;153;856769;-62
2021/04/12 15:35:40;;;;;;;23.07;13.40;;;;;;;10.71;54.32;100315.36;342930;155;863733;-62
2021/04/12 15:36:50;;;;;;;20.64;12.74;;;;;;;10.73;53.93;100311.03;343770;154;863844;-62
2021/04/12 15:37:57;;;;;;;23.73;13.27;;;;;;;10.74;53.66;100311.91;342635;154;856859;-62
2021/04/12 15:39:03;;;;;;;20.07;13.38;;;;;;;10.73;53.48;100313.62;336556;156;856433;-62
2021/04/12 15:40:11;;;;;;;24.58;12.91;;;;;;;10.71;53.46;100304.16;335134;156;857554;-62
2021/04/12 15:41:16;;;;;;;21.03;11.99;;;;;;;10.71;53.35;100306.74;342472;154;857241;-62
2021/04/12 15:42:20;;;;;;;24.30;12.71;;;;;;;10.71;52.77;100317.10;342363;153;856998;-62
2021/04/12 15:43:24;;;;;;;19.81;12.49;;;;;;;10.69;52.69;100308.48;343899;153;857151;-62
2021/04/12 15:44:31;;;;;;;27.42;12.23;;;;;;;10.68;52.55;100307.59;346247;153;856692;-62
2021/04/12 15:45:41;;;;;;;19.55;12.11;;;;;;;10.68;52.69;100304.16;344940;153;856425;-62
2021/04/12 15:46:45;;;;;;;21.26;13.04;;;;;;;10.67;52.73;100305.88;342413;153;857349;-62
2021/04/12 15:47:47;;;;;;;21.31;12.42;;;;;;;10.67;52.57;100295.52;344466;154;857032;-62
2021/04/12 15:48:52;;;;;;;19.79;12.75;;;;;;;10.66;52.62;100298.97;344798;153;864665;-62
2021/04/12 15:50:06;;;;;;;23.12;14.00;;;;;;;10.65;52.71;100294.66;342088;154;863793;-62
2021/04/12 15:51:14;;;;;;;27.15;14.67;;;;;;;10.65;52.65;100297.25;343174;153;856265;-62
2021/04/12 15:52:23;;;;;;;28.77;16.20;;;;;;;10.63;52.69;100297.27;338395;153;856752;-63
2021/04/12 15:53:25;;;;;;;29.42;15.38;;;;;;;10.62;53.03;100290.37;345118;154;856369;-63
2021/04/12 15:54:27;;;;;;;24.27;14.27;;;;;;;10.63;53.05;100297.27;345743;154;856503;-62
2021/04/12 15:55:33;;;;;;;24.14;13.95;;;;;;;10.64;53.06;100295.52;343558;154;856206;-63
2021/04/12 15:56:52;;;;;;;25.99;14.70;;;;;;;10.64;52.93;100292.94;343847;153;856251;-63
2021/04/12 15:58:01;;;;;;;24.47;14.29;;;;;;;10.65;52.99;100289.48;344586;153;856840;-63
2021/04/12 15:59:09;;;;;;;29.69;15.01;;;;;;;10.64;52.90;100293.81;334505;157;856546;-63
2021/04/12 16:00:16;;;;;;;27.54;14.60;;;;;;;10.64;52.94;100296.41;341946;154;856272;-63
2021/04/12 16:01:24;;;;;;;26.14;14.09;;;;;;;10.63;52.96;100293.80;344017;153;856357;-62
2021/04/12 16:02:29;;;;;;;27.02;14.88;;;;;;;10.62;52.94;100289.48;345443;154;856526;-62
2021/04/12 16:03:30;;;;;;;26.71;15.66;;;;;;;10.59;52.77;100287.75;347155;154;856327;-62
2021/04/12 16:04:39;;;;;;;27.03;14.53;;;;;;;10.55;52.59;100290.38;344336;153;856907;-63
2021/04/12 16:05:48;;;;;;;26.40;15.41;;;;;;;10.54;52.62;100291.23;331074;160;856525;-62
2021/04/12 16:06:50;;;;;;;30.59;16.82;;;;;;;10.52;52.79;100289.52;337210;157;856543;-62
2021/04/12 16:08:10;;;;;;;29.62;16.04;;;;;;;10.55;52.66;100291.22;341936;154;859003;-62
2021/04/12 16:09:26;;;;;;;25.11;15.11;;;;;;;10.57;52.71;100291.23;337880;154;857659;-62
2021/04/12 16:10:55;;;;;;;26.29;14.39;;;;;;;10.59;52.49;100292.09;336820;157;856841;-63
2021/04/12 16:11:58;;;;;;;23.57;14.67;;;;;;;10.60;52.48;100293.81;334833;154;856466;-63
2021/04/12 16:13:09;;;;;;;27.86;15.42;;;;;;;10.63;52.46;100299.86;337249;156;856661;-63
2021/04/12 16:14:23;;;;;;;24.57;14.63;;;;;;;10.62;52.35;100300.72;338044;156;856363;-63
2021/04/12 16:15:28;;;;;;;24.71;14.47;;;;;;;10.63;52.52;100296.39;328468;161;856328;-63
2021/04/12 16:16:35;;;;;;;31.39;15.48;;;;;;;10.63;52.57;100298.98;329776;160;856949;-63
2021/04/12 16:17:42;;;;;;;21.41;14.29;;;;;;;10.62;52.35;100300.72;324054;161;856840;-63
2021/04/12 16:18:54;;;;;;;26.17;15.91;;;;;;;10.62;52.35;100300.72;319669;165;857079;-63
2021/04/12 16:20:21;;;;;;;27.24;14.87;;;;;;;10.61;52.41;100303.30;320550;165;856517;-63
2021/04/12 16:21:26;;;;;;;30.51;14.13;;;;;;;10.59;52.47;100300.70;318826;165;856502;-63
2021/04/12 16:22:36;;;;;;;26.75;14.99;;;;;;;10.56;52.44;100307.63;322348;164;856282;-63
2021/04/12 16:23:50;;;;;;;26.62;15.64;;;;;;;10.55;52.61;100295.55;320516;165;856238;-63
2021/04/12 16:24:59;;;;;;;27.89;15.76;;;;;;;10.55;52.83;100295.55;319161;166;856391;-63
2021/04/12 16:26:04;;;;;;;21.91;13.97;;;;;;;10.51;52.75;100298.14;320438;166;856467;-63
2021/04/12 16:27:12;;;;;;;25.83;15.46;;;;;;;10.50;52.79;100303.31;319819;165;856435;-63
2021/04/12 16:28:18;;;;;;;25.37;14.77;;;;;;;10.48;52.86;100302.45;316926;165;857272;-63
2021/04/12 16:29:45;;;;;;;24.41;15.61;;;;;;;10.46;52.78;100301.59;323413;165;856378;-63
2021/04/12 16:30:57;;;;;;;20.95;14.01;;;;;;;10.41;52.93;100293.85;307523;172;857062;-63
2021/04/12 16:32:06;;;;;;;25.23;14.63;;;;;;;10.42;53.21;100294.70;321073;165;856665;-63
2021/04/12 16:33:19;;;;;;;27.09;14.79;;;;;;;10.41;53.05;100296.44;320075;165;856972;-63
2021/04/12 16:34:23;;;;;;;22.64;14.17;;;;;;;10.41;53.18;100293.85;325591;163;856367;-63
2021/04/12 16:35:27;;;;;;;24.04;14.81;;;;;;;10.40;53.40;100286.95;327183;163;856292;-63
2021/04/12 16:36:43;;;;;;;27.59;13.91;;;;;;;10.42;53.41;100290.39;324250;163;857069;-63
2021/04/12 16:37:48;;;;;;;23.89;14.25;;;;;;;10.45;53.41;100289.52;322053;165;856576;-63
2021/04/12 16:39:03;;;;;;;24.61;14.36;;;;;;;10.45;53.47;100287.80;320662;164;857008;-63
2021/04/12 16:40:07;;;;;;;23.34;14.36;;;;;;;10.45;53.67;100290.39;316747;168;856571;-63
2021/04/12 16:41:19;;;;;;;27.34;15.15;;;;;;;10.43;53.39;100284.36;323484;163;857532;-63
2021/04/12 16:42:35;;;;;;;25.66;15.02;;;;;;;10.40;53.26;100288.66;314422;168;863908;-63
2021/04/12 16:43:43;;;;;;;26.61;15.08;;;;;;;10.36;53.09;100282.61;321629;162;856470;-63
2021/04/12 16:44:58;;;;;;;28.32;14.94;;;;;;;10.35;53.29;100280.89;325923;160;856569;-63
2021/04/12 16:46:02;;;;;;;28.01;14.37;;;;;;;10.33;53.58;100275.70;331818;159;856360;-63
2021/04/12 16:47:06;;;;;;;24.51;15.39;;;;;;;10.34;53.71;100281.75;330477;160;856743;-63
2021/04/12 16:48:12;;;;;;;26.44;16.09;;;;;;;10.34;53.68;100277.42;333020;159;863847;-63
2021/04/12 16:49:20;;;;;;;27.97;15.98;;;;;;;10.35;53.66;100284.32;332151;159;856332;-63
2021/04/12 16:50:42;;;;;;;25.48;15.35;;;;;;;10.35;53.68;100284.32;331493;159;857074;-63
2021/04/12 16:51:53;;;;;;;30.44;16.61;;;;;;;10.37;53.84;100285.18;331920;159;856506;-62
2021/04/12 16:52:57;;;;;;;29.14;16.16;;;;;;;10.37;53.83;100272.23;331015;159;857084;-62
2021/04/12 16:54:03;;;;;;;27.12;16.48;;;;;;;10.38;53.77;100288.64;330816;162;856192;-62
2021/04/12 16:55:24;;;;;;;27.12;16.97;;;;;;;10.38;53.87;100279.14;331823;158;856998;-62
2021/04/12 16:56:31;;;;;;;28.32;17.57;;;;;;;10.39;54.10;100277.43;332119;159;856304;-62
2021/04/12 16:57:42;;;;;;;35.68;18.40;;;;;;;10.39;54.04;100280.02;333062;159;856506;-62
2021/04/12 16:58:47;;;;;;;28.96;17.16;;;;;;;10.40;54.07;100278.30;331575;159;856650;-62
2021/04/12 17:00:08;;;;;;;32.27;19.01;;;;;;;10.40;54.01;100278.30;335519;159;856218;-63
2021/04/12 17:01:13;;;;;;;33.82;16.88;;;;;;;10.41;54.09;100287.80;323311;159;857292;-62
2021/04/12 17:02:30;;;;;;;30.86;17.19;;;;;;;10.41;54.14;100277.44;326848;159;856627;-62
2021/04/12 17:03:40;;;;;;;35.01;17.99;;;;;;;10.40;54.20;100283.48;332080;159;856555;-62
2021/04/12 17:04:49;;;;;;;28.38;15.43;;;;;;;10.40;54.25;100289.53;329253;159;856420;-62
2021/04/12 17:06:06;;;;;;;30.43;16.81;;;;;;;10.42;54.33;100286.93;332796;159;856574;-62
2021/04/12 17:07:29;;;;;;;31.46;17.16;;;;;;;10.41;54.21;100286.09;330583;160;856603;-62
2021/04/12 17:08:38;;;;;;;36.21;15.91;;;;;;;10.42;54.22;100287.81;321414;162;856362;-62
2021/04/12 17:09:46;;;;;;;31.31;15.29;;;;;;;10.43;54.21;100291.24;325099;162;857374;-62
2021/04/12 17:10:53;;;;;;;33.63;15.18;;;;;;;10.43;54.25;100291.24;318147;168;856787;-62
2021/04/12 17:12:06;;;;;;;28.59;15.56;;;;;;;10.42;54.39;100292.11;323857;164;863992;-62
2021/04/12 17:13:21;;;;;;;25.52;15.04;;;;;;;10.41;54.58;100290.38;318575;166;856987;-62
2021/04/12 17:14:31;;;;;;;34.08;15.63;;;;;;;10.41;54.67;100285.20;317821;166;856405;-63
2021/04/12 17:15:42;;;;;;;33.81;15.64;;;;;;;10.40;54.75;100286.07;319468;165;857018;-62
2021/04/12 17:17:01;;;;;;;30.12;15.43;;;;;;;10.38;54.72;100286.91;317949;165;856613;-62
2021/04/12 17:18:07;;;;;;;30.97;15.76;;;;;;;10.40;54.71;100289.53;325715;162;856308;-62
2021/04/12 17:19:11;;;;;;;27.47;15.14;;;;;;;10.38;54.63;100294.67;327129;163;856739;-62
2021/04/12 17:20:38;;;;;;;32.98;16.38;;;;;;;10.36;54.66;100291.22;325040;164;857136;-63
2021/04/12 17:22:01;;;;;;;30.74;16.31;;;;;;;10.36;54.71;100290.38;324974;163;864590;-62
2021/04/12 17:23:11;;;;;;;26.86;15.87;;;;;;;10.36;54.60;100290.38;319464;165;857154;-62
2021/04/12 17:24:26;;;;;;;;;;;;;;;10.35;54.51;100292.09;328057;162;856576;-63
2021/04/12 17:25:35;;;;;;;29.64;14.88;;;;;;;10.37;54.63;100297.28;326654;163;856439;-63
2021/04/12 17:26:43;;;;;;;34.97;15.43;;;;;;;10.37;54.61;100295.53;313628;168;856531;-62
2021/04/12 17:27:46;;;;;;;31.59;16.74;;;;;;;10.37;54.62;100292.95;320387;165;856542;-62
2021/04/12 17:28:53;;;;;;;30.26;16.54;;;;;;;10.39;54.54;100298.14;321478;165;856564;-62
2021/04/12 17:30:12;;;;;;;30.99;16.26;;;;;;;10.37;54.44;100303.30;319611;165;856503;-62
2021/04/12 17:31:27;;;;;;;27.12;16.26;;;;;;;10.37;54.63;100299.87;318828;165;857086;-62
2021/04/12 17:32:44;;;;;;;27.38;16.12;;;;;;;10.37;54.66;100302.45;325033;162;856249;-62
2021/04/12 17:33:49;;;;;;;34.63;16.90;;;;;;;10.36;54.63;100301.58;319215;165;857272;-62
2021/04/12 17:34:54;;;;;;;32.36;17.76;;;;;;;10.35;54.52;100297.27;324842;163;856270;-62
2021/04/12 17:36:11;;;;;;;33.56;18.09;;;;;;;10.31;54.47;100302.46;319346;165;856666;-62
2021/04/12 17:37:19;;;;;;;30.52;17.19;;;;;;;10.28;54.54;100295.55;323807;163;856417;-62
2021/04/12 17:38:25;;;;;;;29.12;17.24;;;;;;;10.28;54.67;100298.14;316348;169;856836;-62
2021/04/12 17:39:30;;;;;;;37.97;18.27;;;;;;;10.28;54.66;100299.88;319521;166;856868;-62
2021/04/12 17:40:35;;;;;;;34.38;18.21;;;;;;;10.26;54.70;100299.86;328593;159;856327;-62
2021/04/12 17:41:43;;;;;;;32.97;19.04;;;;;;;10.23;54.77;100292.11;330939;159;856669;-62
2021/04/12 17:42:45;;;;;;;33.41;18.75;;;;;;;10.20;54.88;100298.16;331103;162;856427;-62
2021/04/12 17:43:50;;;;;;;38.21;20.03;;;;;;;10.18;54.91;100294.72;331468;159;856490;-62
2021/04/12 17:44:56;;;;;;;33.71;18.92;;;;;;;10.18;55.10;100296.42;331007;162;863776;-62
2021/04/12 17:46:06;;;;;;;35.33;19.09;;;;;;;10.19;55.15;100300.73;329273;161;856616;-62
2021/04/12 17:47:10;;;;;;;36.09;19.02;;;;;;;10.20;55.30;100300.75;330516;159;856717;-62
2021/04/12 17:48:19;;;;;;;36.85;18.73;;;;;;;10.21;55.12;100296.42;332538;159;856815;-62
2021/04/12 17:49:41;;;;;;;31.79;18.82;;;;;;;10.22;55.22;100292.97;332318;159;856299;-62
2021/04/12 17:50:43;;;;;;;38.52;21.28;;;;;;;10.22;55.26;100293.84;333935;159;856994;-62
2021/04/12 17:51:47;;;;;;;34.26;20.32;;;;;;;10.22;55.16;100288.67;331285;159;856404;-62
2021/04/12 17:52:49;;;;;;;37.48;18.86;;;;;;;10.23;55.18;100290.39;331179;159;863831;-62
2021/04/12 17:54:06;;;;;;;38.06;19.52;;;;;;;10.23;55.34;100282.62;331009;159;856403;-62
2021/04/12 17:55:15;;;;;;;38.68;21.15;;;;;;;10.24;55.24;100288.65;331384;161;857022;-62
2021/04/12 17:56:21;;;;;;;42.75;19.86;;;;;;;10.20;55.18;100279.17;329796;162;857026;-62
2021/04/12 17:57:35;;;;;;;40.92;19.41;;;;;;;10.21;55.28;100278.30;331953;159;856266;-63
2021/04/12 17:58:43;;;;;;;38.71;21.12;;;;;;;10.20;55.25;100284.34;329749;160;857058;-62
2021/04/12 17:59:49;;;;;;;35.52;20.74;;;;;;;10.21;55.30;100281.77;329906;161;856267;-62
2021/04/12 18:00:52;;;;;;;34.68;20.67;;;;;;;10.20;55.22;100282.64;325538;160;856822;-62
2021/04/12 18:02:01;;;;;;;38.99;20.49;;;;;;;10.20;55.23;100281.76;323820;164;856388;-62
2021/04/12 18:03:20;;;;;;;35.31;19.79;;;;;;;10.18;55.21;100281.77;323355;163;856283;-62
2021/04/12 18:04:27;;;;;;;37.95;20.32;;;;;;;10.18;55.29;100286.95;324453;162;856628;-62
2021/04/12 18:05:33;;;;;;;41.89;21.25;;;;;;;10.17;55.25;100280.05;320390;166;856301;-62
2021/04/12 18:06:45;;;;;;;38.06;20.26;;;;;;;10.14;55.21;100280.05;317992;165;856739;-62
2021/04/12 18:07:47;;;;;;;39.72;21.27;;;;;;;10.12;55.27;100286.95;319083;165;856345;-63
2021/04/12 18:08:54;;;;;;;40.89;20.86;;;;;;;10.11;55.30;100285.23;327199;162;856613;-62
2021/04/12 18:10:04;;;;;;;42.91;21.79;;;;;;;10.11;55.44;100287.82;330024;161;857385;-62
2021/04/12 18:11:30;;;;;;;38.21;21.26;;;;;;;10.12;55.66;100289.54;330230;161;856685;-62
2021/04/12 18:12:37;;;;;;;37.75;21.38;;;;;;;10.12;55.56;100286.08;331643;160;856456;-62
2021/04/12 18:13:41;;;;;;;40.14;21.19;;;;;;;10.08;55.46;100291.25;329389;161;856281;-62
2021/04/12 18:14:52;;;;;;;44.53;22.94;;;;;;;10.05;55.44;100282.61;330539;160;857118;-62
2021/04/12 18:16:13;;;;;;;36.27;21.36;;;;;;;10.03;55.59;100290.39;330361;160;863973;-62
2021/04/12 18:17:27;;;;;;;42.37;21.99;;;;;;;10.03;55.50;100285.22;329217;160;856504;-62
2021/04/12 18:18:38;;;;;;;44.59;21.92;;;;;;;10.03;55.41;100281.75;329202;160;856540;-62
2021/04/12 18:19:46;;;;;;;47.59;22.63;;;;;;;10.03;55.45;100287.81;331019;160;856262;-62
2021/04/12 18:20:49;;;;;;;43.07;21.66;;;;;;;10.03;55.42;100295.56;329137;162;856281;-63
2021/04/12 18:22:04;;;;;;;45.80;22.30;;;;;;;10.03;55.45;100287.81;326439;162;856773;-62
2021/04/12 18:23:19;;;;;;;39.72;21.68;;;;;;;10.03;55.64;100284.34;330987;160;856334;-63
2021/04/12 18:24:41;;;;;;;41.61;22.17;;;;;;;10.02;55.87;100288.67;320745;165;856547;-62
2021/04/12 18:25:49;;;;;;;42.09;20.85;;;;;;;10.02;56.05;100292.97;319576;165;857020;-63
2021/04/12 18:26:51;;;;;;;37.68;21.03;;;;;;;10.02;56.18;100301.60;332752;160;856217;-63
2021/04/12 18:27:53;;;;;;;42.00;21.07;;;;;;;10.02;56.25;100298.14;325860;162;856635;-63
2021/04/12 18:28:58;;;;;;;38.65;21.36;;;;;;;10.00;56.16;100292.10;328670;160;856261;-63
2021/04/12 18:30:05;;;;;;;39.88;21.28;;;;;;;9.97;56.16;100292.10;332742;160;863794;-62
2021/04/12 18:31:20;;;;;;;38.80;23.29;;;;;;;9.95;56.01;100302.47;330975;160;856874;-63
2021/04/12 18:32:24;;;;;;;37.31;21.95;;;;;;;9.93;56.10;100294.69;331424;161;856536;-62
2021/04/12 18:33:32;;;;;;;39.78;21.48;;;;;;;9.91;56.13;100301.59;326206;162;856426;-62
2021/04/12 18:34:40;;;;;;;40.14;20.98;;;;;;;9.87;56.00;100299.86;328825;161;857493;-64
2021/04/12 18:36:03;;;;;;;39.98;20.63;;;;;;;9.85;56.01;100295.56;331770;160;856848;-63
2021/04/12 18:37:14;;;;;;;43.24;21.49;;;;;;;9.85;56.53;100300.73;330192;160;856942;-63
2021/04/12 18:38:25;;;;;;;42.84;21.91;;;;;;;9.85;56.65;100298.16;330366;162;856959;-63
2021/04/12 18:39:36;;;;;;;40.05;21.07;;;;;;;9.84;56.65;100292.10;330921;160;857044;-63
2021/04/12 18:40:48;;;;;;;39.34;20.49;;;;;;;9.85;56.44;100298.16;330294;160;857087;-62
2021/04/12 18:41:57;;;;;;;39.53;21.23;;;;;;;9.84;56.33;100291.25;329821;160;856288;-63
2021/04/12 18:43:05;;;;;;;41.63;20.59;;;;;;;9.85;56.36;100298.16;330909;162;856323;-63
2021/04/12 18:44:09;;;;;;;40.14;20.53;;;;;;;9.84;56.29;100299.86;331282;160;856314;-62
2021/04/12 18:45:23;;;;;;;38.13;19.66;;;;;;;9.84;56.47;100291.25;330853;161;856632;-63
2021/04/12 18:46:48;;;;;;;34.74;19.73;;;;;;;9.83;56.62;100298.14;329117;163;856291;-62
2021/04/12 18:47:59;;;;;;;38.98;19.22;;;;;;;9.84;56.52;100299.02;330549;160;856346;-62
2021/04/12 18:49:13;;;;;;;35.42;19.06;;;;;;;9.85;56.91;100301.58;329814;162;856208;-62
2021/04/12 18:50:26;;;;;;;40.63;20.22;;;;;;;9.88;56.89;100309.34;329869;160;857444;-62
2021/04/12 18:52:03;;;;;;;35.07;18.81;;;;;;;9.88;57.13;100303.33;329226;161;856876;-62
2021/04/12 18:53:27;;;;;;;35.52;18.85;;;;;;;9.87;57.57;100305.03;329963;160;856628;-62
2021/04/12 18:54:38;;;;;;;53.71;20.62;;;;;;;9.82;57.23;100300.73;329805;162;856281;-62
2021/04/12 18:55:42;;;;;;;38.77;19.49;;;;;;;9.82;57.39;100300.73;325030;162;856478;-62
2021/04/12 18:56:52;;;;;;;42.29;20.14;;;;;;;9.81;57.36;100296.42;315032;167;856419;-62
2021/04/12 18:58:30;;;;;;;34.73;19.42;;;;;;;9.79;57.17;100307.63;323329;161;856631;-62
2021/04/12 18:59:39;;;;;;;38.89;19.76;;;;;;;9.79;57.21;100301.58;331145;160;862333;-62
2021/04/12 19:00:44;;;;;;;45.71;19.73;;;;;;;9.76;57.02;100293.82;328162;161;856643;-62
2021/04/12 19:01:52;;;;;;;42.29;20.41;;;;;;;9.76;57.24;100296.41;331402;160;856485;-62
2021/04/12 19:03:26;;;;;;;40.13;20.94;;;;;;;9.74;57.02;100293.84;331208;161;856352;-62
2021/04/12 19:04:40;;;;;;;40.26;20.01;;;;;;;9.73;56.87;100293.81;329654;160;856951;-62
2021/04/12 19:05:58;;;;;;;40.89;19.50;;;;;;;9.70;56.92;100301.57;327411;160;856786;-62
2021/04/12 19:07:19;;;;;;;38.67;21.01;;;;;;;9.69;57.58;100295.55;330063;160;856663;-62
2021/04/12 19:08:45;;;;;;;42.29;19.69;;;;;;;9.68;57.82;100299.00;327975;160;856867;-61
2021/04/12 19:09:54;;;;;;;34.57;19.81;;;;;;;9.67;57.74;100296.39;330150;160;856248;-61
2021/04/12 19:10:57;;;;;;;37.82;19.94;;;;;;;9.65;57.80;100299.00;332229;160;856283;-62
2021/04/12 19:12:27;;;;;;;35.81;19.31;;;;;;;9.65;57.84;100293.83;331447;160;856847;-62
2021/04/12 19:13:41;;;;;;;38.22;18.93;;;;;;;9.62;57.69;100288.65;329623;160;856294;-61
2021/04/12 19:14:57;;;;;;;35.92;18.80;;;;;;;9.62;57.16;100296.41;328179;162;856418;-61
2021/04/12 19:16:15;;;;;;;37.25;18.60;;;;;;;9.60;57.31;100298.13;326538;162;857092;-62
2021/04/12 19:17:28;;;;;;;33.77;17.42;;;;;;;9.59;57.39;100299.83;330429;160;856600;-61
2021/04/12 19:19:07;;;;;;;37.29;18.09;;;;;;;9.58;57.45;100302.43;329805;160;856464;-61
2021/04/12 19:20:12;;;;;;;38.77;18.18;;;;;;;9.57;57.44;100303.30;331304;160;856250;-61
2021/04/12 19:21:21;;;;;;;37.93;18.25;;;;;;;9.57;57.72;100305.88;330050;162;856958;-62
2021/04/12 19:22:27;;;;;;;37.00;18.94;;;;;;;9.55;57.86;100292.93;330717;161;857056;-62
2021/04/12 19:23:54;;;;;;;30.85;18.00;;;;;;;9.54;57.75;100301.55;326690;164;856200;-62
2021/04/12 19:25:25;;;;;;;32.93;17.12;;;;;;;9.51;57.69;100306.71;327528;161;856821;-62
2021/04/12 19:26:43;;;;;;;34.06;16.99;;;;;;;9.47;57.71;100304.98;332516;160;856381;-62
2021/04/12 19:28:19;;;;;;;34.30;16.94;;;;;;;9.43;57.92;100298.92;330053;160;856402;-62
2021/04/12 19:29:30;;;;;;;36.29;17.29;;;;;;;9.41;58.05;100299.80;331859;160;856557;-62
2021/04/12 19:31:09;;;;;;;38.02;16.76;;;;;;;9.38;58.23;100303.22;327444;161;856784;-61
2021/04/12 19:32:21;;;;;;;36.93;16.56;;;;;;;9.37;58.36;100305.81;328757;163;856159;-61
2021/04/12 19:33:44;;;;;;;34.07;16.98;;;;;;;9.35;58.33;100303.21;327501;162;856567;-62
2021/04/12 19:35:11;;;;;;;36.36;17.19;;;;;;;9.32;58.39;100308.37;329299;161;856867;-61
2021/04/12 19:36:47;;;;;;;33.21;17.27;;;;;;;9.28;58.43;100302.34;327541;161;857036;-61
2021/04/12 19:38:12;;;;;;;28.10;15.48;;;;;;;9.26;58.35;100301.48;325107;161;856197;-61
2021/04/12 19:39:24;;;;;;;37.12;16.97;;;;;;;9.21;58.36;100300.60;327954;162;856317;-63
2021/04/12 19:40:33;;;;;;;31.04;16.66;;;;;;;9.19;58.72;100298.00;333603;161;857323;-61
2021/04/12 19:42:02;;;;;;;31.87;16.83;;;;;;;9.14;58.94;100302.29;327596;162;860322;-61
2021/04/12 19:43:06;;;;;;;28.27;16.18;;;;;;;9.14;59.28;100301.44;328544;163;857340;-61
2021/04/12 19:44:27;;;;;;;34.81;16.81;;;;;;;9.12;59.22;100301.42;328022;162;856762;-62
2021/04/12 19:45:50;;;;;;;38.08;15.93;;;;;;;9.12;59.22;100301.42;329215;161;856233;-62
2021/04/12 19:47:11;;;;;;;25.07;15.07;;;;;;;9.13;58.80;100297.98;329239;161;856681;-62
2021/04/12 19:48:27;;;;;;;;;;;;;;;9.12;58.67;100296.25;332156;161;856074;-62
2021/04/12 19:49:31;;;;;;;35.43;15.19;;;;;;;9.13;58.77;100297.13;328122;161;856360;-62
2021/04/12 19:50:36;;;;;;;27.91;15.11;;;;;;;9.15;59.23;100303.17;326197;164;856845;-62
2021/04/12 19:51:51;;;;;;;30.19;15.78;;;;;;;9.13;59.28;100294.55;321997;166;856314;-62
2021/04/12 19:53:31;;;;;;;36.14;16.02;;;;;;;9.12;59.40;100293.67;324242;163;856413;-62
2021/04/12 19:54:37;;;;;;;34.68;15.84;;;;;;;9.12;59.39;100293.67;325285;163;856244;-62
2021/04/12 19:55:40;;;;;;;30.29;16.53;;;;;;;9.12;59.38;100295.41;323338;163;856368;-62
2021/04/12 19:56:57;;;;;;;31.99;15.54;;;;;;;9.10;59.53;100297.13;324529;165;857122;-62
2021/04/12 19:58:27;;;;;;;29.78;15.88;;;;;;;9.10;59.60;100295.39;321108;161;856645;-62
2021/04/12 19:59:49;;;;;;;32.21;17.47;;;;;;;9.09;59.67;100288.49;327407;163;856488;-62
2021/04/12 20:00:52;;;;;;;31.72;18.30;;;;;;;9.09;59.89;100298.83;322266;163;856279;-62
2021/04/12 20:01:54;;;;;;;40.97;19.26;;;;;;;9.10;60.01;100294.54;323037;163;856255;-62
2021/04/12 20:03:16;;;;;;;39.04;17.55;;;;;;;9.10;60.01;100294.54;327472;161;856528;-62
2021/04/12 20:04:27;;;;;;;35.07;18.58;;;;;;;9.08;59.95;100299.69;328425;162;856235;-62
2021/04/12 20:05:44;;;;;;;36.90;19.47;;;;;;;9.09;59.94;100300.56;327496;161;856832;-62
2021/04/12 20:06:55;;;;;;;34.78;19.78;;;;;;;9.06;59.75;100301.40;326860;162;856805;-62
2021/04/12 20:08:17;;;;;;;41.44;18.76;;;;;;;9.05;59.70;100297.09;323821;163;856249;-62
2021/04/12 20:09:42;;;;;;;42.02;19.47;;;;;;;9.05;59.68;100307.42;324986;162;856464;-62
2021/04/12 20:11:02;;;;;;;39.92;18.24;;;;;;;9.04;59.74;100303.98;323508;162;856323;-62
2021/04/12 20:12:16;;;;;;;32.65;18.32;;;;;;;9.02;59.72;100303.12;320111;165;856501;-62
2021/04/12 20:13:40;;;;;;;33.30;17.94;;;;;;;9.03;59.58;100303.97;318351;164;856376;-62
2021/04/12 20:15:02;;;;;;;32.38;16.91;;;;;;;9.02;59.55;100303.12;324297;163;856368;-62
2021/04/12 20:16:06;;;;;;;33.92;18.01;;;;;;;9.02;59.58;100307.41;324474;162;856659;-62
2021/04/12 20:17:24;;;;;;;35.38;18.71;;;;;;;9.01;59.67;100310.84;324479;163;856251;-62
2021/04/12 20:18:41;;;;;;;40.29;18.38;;;;;;;9.01;59.77;100303.98;318070;168;856306;-62
2021/04/12 20:20:13;;;;;;;33.45;18.36;;;;;;;9.01;59.79;100308.27;320135;166;856370;-62
2021/04/12 20:21:19;;;;;;;29.94;17.61;;;;;;;9.00;59.78;100304.80;324074;163;857032;-62
2021/04/12 20:22:24;;;;;;;32.44;18.48;;;;;;;9.01;59.88;100314.31;324457;163;856247;-62
2021/04/12 20:23:38;;;;;;;35.65;19.43;;;;;;;9.02;59.95;100313.45;323908;164;856218;-62
2021/04/12 20:25:03;;;;;;;34.16;18.95;;;;;;;9.01;60.00;100309.14;322465;163;856367;-62
2021/04/12 20:26:25;;;;;;;32.54;18.66;;;;;;;8.99;59.96;100315.98;324420;165;856242;-62
2021/04/12 20:27:45;;;;;;;34.60;19.26;;;;;;;9.01;59.89;100309.14;324146;163;857156;-62
2021/04/12 20:29:23;;;;;;;33.03;18.31;;;;;;;9.00;60.06;100314.28;322961;164;856736;-63